createdAt,value
2022-12-31T00:01:56.625Z,15.98
2022-12-31T00:06:58.323Z,15.70
2022-12-31T00:11:59.965Z,16.98
2022-12-31T00:17:01.704Z,13.90
2022-12-31T00:22:03.469Z,17.33
2022-12-31T00:27:05.081Z,16.85
2022-12-31T00:32:06.761Z,17.90
2022-12-31T00:37:08.450Z,12.88
2022-12-31T00:42:10.150Z,14.80
2022-12-31T00:47:11.811Z,15.30
2022-12-31T00:52:15.927Z,14.07
2022-12-31T00:57:17.628Z,17.92
2022-12-31T01:02:19.450Z,12.43
2022-12-31T01:07:21.294Z,17.45
2022-12-31T01:12:25.200Z,11.90
2022-12-31T01:17:28.416Z,13.80
2022-12-31T01:22:30.123Z,11.88
2022-12-31T01:27:31.893Z,12.85
2022-12-31T01:32:33.547Z,13.95
2022-12-31T01:37:35.434Z,14.60
2022-12-31T01:42:37.251Z,18.20
2022-12-31T01:47:45.638Z,13.18
2022-12-31T01:52:53.053Z,14.30
2022-12-31T01:57:59.335Z,11.43
2022-12-31T02:03:01.446Z,12.30
2022-12-31T02:08:03.733Z,12.65
2022-12-31T02:13:05.656Z,12.45
2022-12-31T02:18:32.479Z,18.02
2022-12-31T02:23:49.408Z,10.48
2022-12-31T02:29:09.756Z,12.38
2022-12-31T02:34:11.377Z,15.68
2022-12-31T02:39:14.601Z,14.77
2022-12-31T02:44:28.041Z,14.07
2022-12-31T02:49:47.786Z,15.85
2022-12-31T02:55:26.868Z,13.70
2022-12-31T03:00:49.692Z,15.32
2022-12-31T03:05:51.990Z,12.70
2022-12-31T03:10:53.804Z,15.05
2022-12-31T03:15:55.497Z,17.25
2022-12-31T03:21:22.753Z,13.75
2022-12-31T03:26:26.739Z,11.80
2022-12-31T03:31:28.419Z,13.95
2022-12-31T03:36:30.096Z,15.07
2022-12-31T03:41:31.733Z,12.10
2022-12-31T03:46:33.420Z,12.27
2022-12-31T03:51:35.065Z,13.05
2022-12-31T03:56:36.724Z,9.18
2022-12-31T04:01:38.544Z,12.13
2022-12-31T04:06:40.718Z,12.90
2022-12-31T04:11:42.456Z,17.92
2022-12-31T04:16:44.839Z,13.88
2022-12-31T04:21:46.648Z,13.10
2022-12-31T04:26:48.803Z,14.95
2022-12-31T04:31:50.720Z,12.40
2022-12-31T04:36:52.468Z,9.95
2022-12-31T04:41:54.606Z,13.73
2022-12-31T04:46:56.264Z,9.13
2022-12-31T04:51:58.103Z,11.80
2022-12-31T04:56:59.775Z,11.65
2022-12-31T05:02:01.760Z,12.63
2022-12-31T05:07:03.677Z,12.65
2022-12-31T05:12:05.725Z,10.15
2022-12-31T05:17:07.430Z,13.05
2022-12-31T05:22:27.533Z,10.20
2022-12-31T05:27:31.395Z,10.18
2022-12-31T05:32:33.750Z,14.55
2022-12-31T05:37:35.380Z,13.85
2022-12-31T05:42:37.228Z,14.13
2022-12-31T05:47:42.343Z,12.77
2022-12-31T05:52:47.660Z,13.70
2022-12-31T05:57:49.670Z,13.32
2022-12-31T06:02:51.472Z,15.05
2022-12-31T06:07:53.182Z,11.85
2022-12-31T06:12:54.849Z,11.75
2022-12-31T06:17:56.592Z,12.82
2022-12-31T06:22:58.390Z,12.65
2022-12-31T06:28:00.175Z,13.07
2022-12-31T06:33:01.900Z,12.90
2022-12-31T06:38:03.762Z,12.52
2022-12-31T06:43:05.911Z,11.10
2022-12-31T06:48:07.887Z,13.45
2022-12-31T06:53:09.668Z,9.88
2022-12-31T06:58:16.096Z,10.77
2022-12-31T07:03:43.997Z,10.70
2022-12-31T07:08:59.344Z,13.68
2022-12-31T07:14:22.366Z,18.45
2022-12-31T07:20:03.488Z,11.38
2022-12-31T07:25:07.268Z,13.02
2022-12-31T07:30:16.177Z,12.68
2022-12-31T07:35:18.753Z,10.63
2022-12-31T07:40:43.817Z,12.30
2022-12-31T07:45:55.160Z,14.80
2022-12-31T07:50:57.943Z,11.88
2022-12-31T07:56:01.864Z,14.07
2022-12-31T08:01:04.395Z,15.32
2022-12-31T08:06:34.248Z,11.05
2022-12-31T08:11:47.523Z,12.15
2022-12-31T08:16:49.723Z,15.70
2022-12-31T08:22:28.964Z,16.00
2022-12-31T08:27:49.300Z,14.88
2022-12-31T08:33:13.578Z,21.08
2022-12-31T08:38:27.710Z,14.05
2022-12-31T08:43:55.496Z,21.05
2022-12-31T08:48:57.552Z,24.35
2022-12-31T08:53:59.563Z,15.77
2022-12-31T08:59:28.180Z,19.00
2022-12-31T09:05:08.027Z,17.95
2022-12-31T09:10:35.721Z,13.23
2022-12-31T09:15:47.201Z,16.90
2022-12-31T09:20:49.141Z,14.20
2022-12-31T09:26:15.609Z,17.83
2022-12-31T09:36:53.266Z,16.38
2022-12-31T09:42:00.790Z,21.98
2022-12-31T09:47:35.091Z,15.65
2022-12-31T09:52:58.711Z,12.88
2022-12-31T09:58:18.694Z,11.43
2022-12-31T10:03:54.387Z,13.40
2022-12-31T10:09:14.177Z,17.63
2022-12-31T10:14:46.981Z,19.05
2022-12-31T10:20:15.742Z,18.20
2022-12-31T10:25:51.363Z,16.60
2022-12-31T10:31:15.422Z,15.23
2022-12-31T10:36:31.965Z,16.88
2022-12-31T10:42:11.092Z,12.35
2022-12-31T10:48:00.567Z,12.18
2022-12-31T10:53:39.838Z,12.18
2022-12-31T10:59:03.191Z,8.68
2022-12-31T11:04:14.014Z,9.27
2022-12-31T11:09:34.593Z,12.25
2022-12-31T11:14:42.475Z,10.68
2022-12-31T11:19:51.778Z,10.02
2022-12-31T11:25:13.344Z,11.63
2022-12-31T11:30:51.750Z,7.63
2022-12-31T11:36:19.913Z,11.30
2022-12-31T11:41:39.822Z,11.00
2022-12-31T11:46:50.530Z,12.20
2022-12-31T11:51:52.266Z,9.70
2022-12-31T11:57:10.544Z,10.98
2022-12-31T12:02:36.217Z,8.57
2022-12-31T12:07:38.674Z,10.67
2022-12-31T12:12:42.101Z,10.73
2022-12-31T12:17:44.045Z,10.65
2022-12-31T12:22:56.454Z,10.82
2022-12-31T12:27:58.165Z,9.00
2022-12-31T12:33:04.847Z,11.02
2022-12-31T12:38:12.715Z,10.55
2022-12-31T12:43:27.291Z,13.27
2022-12-31T12:48:40.178Z,9.40
2022-12-31T12:54:20.834Z,10.77
2022-12-31T12:59:44.187Z,9.77
2022-12-31T13:05:03.007Z,8.80
2022-12-31T13:10:33.150Z,8.07
2022-12-31T13:15:45.623Z,11.07
2022-12-31T13:21:01.476Z,12.60
2022-12-31T13:26:19.998Z,7.50
2022-12-31T13:31:28.959Z,9.35
2022-12-31T13:36:33.038Z,10.32
2022-12-31T13:41:45.418Z,9.65
2022-12-31T13:46:54.170Z,8.18
2022-12-31T13:52:17.904Z,8.73
2022-12-31T13:57:33.778Z,8.32
2022-12-31T14:02:54.049Z,7.97
2022-12-31T14:07:59.696Z,9.02
2022-12-31T14:13:04.314Z,7.85
2022-12-31T14:18:33.502Z,7.45
2022-12-31T14:24:04.276Z,9.45
2022-12-31T14:29:09.055Z,9.73
2022-12-31T14:34:49.831Z,9.52
2022-12-31T14:39:57.316Z,8.38
2022-12-31T14:45:15.345Z,7.75
2022-12-31T14:50:29.120Z,11.35
2022-12-31T14:55:35.893Z,7.97
2022-12-31T15:05:54.300Z,9.38
2022-12-31T15:11:26.728Z,11.45
2022-12-31T15:17:05.992Z,8.02
2022-12-31T15:22:22.636Z,11.60
2022-12-31T15:27:37.979Z,9.68
2022-12-31T15:32:42.521Z,15.18
2022-12-31T15:37:44.212Z,11.52
2022-12-31T15:42:55.596Z,12.02
2022-12-31T15:48:00.471Z,9.07
2022-12-31T15:53:07.179Z,10.20
2022-12-31T15:58:26.568Z,10.48
2022-12-31T16:03:30.936Z,11.32
2022-12-31T16:08:34.749Z,12.45
2022-12-31T16:13:41.960Z,11.38
2022-12-31T16:18:44.215Z,10.45
2022-12-31T16:23:51.324Z,10.90
2022-12-31T16:28:53.133Z,8.88
2022-12-31T16:34:13.849Z,14.02
2022-12-31T16:39:39.357Z,7.35
2022-12-31T16:44:41.788Z,16.02
2022-12-31T16:49:46.437Z,11.43
2022-12-31T16:54:49.059Z,8.57
2022-12-31T17:00:00.467Z,11.70
2022-12-31T17:05:02.429Z,10.93
2022-12-31T17:10:06.763Z,13.13
2022-12-31T17:15:19.609Z,18.15
2022-12-31T17:20:28.012Z,11.60
2022-12-31T17:25:36.310Z,10.98
2022-12-31T17:30:42.438Z,10.02
2022-12-31T17:35:45.426Z,10.15
2022-12-31T17:40:51.740Z,14.10
2022-12-31T17:45:54.957Z,15.50
2022-12-31T17:50:59.515Z,15.80
2022-12-31T17:56:05.283Z,21.73
2022-12-31T18:01:08.844Z,20.92
2022-12-31T18:06:16.628Z,26.40
2022-12-31T18:11:22.286Z,22.88
2022-12-31T18:16:24.498Z,16.70
2022-12-31T18:21:32.725Z,21.77
2022-12-31T18:26:34.793Z,20.67
2022-12-31T18:31:37.106Z,20.08
2022-12-31T18:36:38.889Z,19.80
2022-12-31T18:41:49.508Z,21.17
2022-12-31T18:46:51.486Z,21.65
2022-12-31T18:51:54.378Z,24.77
2022-12-31T18:56:57.347Z,20.02
2022-12-31T19:01:59.208Z,21.67
2022-12-31T19:07:00.924Z,21.10
2022-12-31T19:12:02.699Z,21.33
2022-12-31T19:22:04.937Z,20.80
2022-12-31T19:27:06.680Z,21.88
2022-12-31T19:32:08.402Z,22.38
2022-12-31T19:37:15.237Z,20.50
2022-12-31T19:47:18.765Z,21.83
2022-12-31T19:52:20.421Z,18.90
2022-12-31T19:57:22.158Z,19.80
2022-12-31T20:02:23.934Z,21.00
2022-12-31T20:07:27.348Z,22.05
2022-12-31T20:12:29.336Z,28.35
2022-12-31T20:17:31.155Z,31.13
2022-12-31T20:22:33.088Z,25.27
2022-12-31T20:27:35.251Z,21.77
2022-12-31T20:32:36.944Z,21.70
2022-12-31T20:37:38.634Z,20.10
2022-12-31T20:42:41.240Z,23.25
2022-12-31T20:47:42.961Z,24.85
2022-12-31T20:52:44.801Z,29.50
2022-12-31T20:57:46.481Z,28.00
2022-12-31T21:02:57.653Z,28.55
2022-12-31T21:08:05.739Z,27.27
2022-12-31T21:13:07.804Z,28.70
2022-12-31T21:18:09.466Z,29.17
2022-12-31T21:23:11.065Z,29.95
2022-12-31T21:28:13.251Z,30.63
2022-12-31T21:33:14.901Z,36.00
2022-12-31T21:38:16.914Z,30.48
2022-12-31T21:43:19.130Z,38.13
2022-12-31T21:48:20.828Z,32.83
2022-12-31T21:53:30.551Z,28.58
2022-12-31T21:58:40.320Z,27.45
2022-12-31T22:03:42.627Z,29.10
2022-12-31T22:08:45.969Z,32.28
2022-12-31T22:13:48.856Z,30.10
2022-12-31T22:18:50.742Z,29.35
2022-12-31T22:23:54.950Z,33.75
2022-12-31T22:28:59.976Z,33.58
2022-12-31T22:34:02.130Z,41.65
2022-12-31T22:39:03.970Z,38.28
2022-12-31T22:44:05.854Z,39.53
2022-12-31T22:49:12.248Z,38.22
2022-12-31T22:54:14.994Z,43.90
2022-12-31T22:59:17.473Z,36.28
2022-12-31T23:04:19.278Z,41.70
2022-12-31T23:09:39.720Z,94.75
2022-12-31T23:15:00.258Z,101.57
2022-12-31T23:20:21.459Z,118.18
2022-12-31T23:25:23.190Z,188.93
2022-12-31T23:30:25.016Z,195.45
2022-12-31T23:35:26.755Z,163.85
2022-12-31T23:40:34.388Z,131.23
2022-12-31T23:45:36.750Z,153.52
2022-12-31T23:50:40.702Z,216.38
2022-12-31T23:55:42.438Z,83.05
